Terminal Aerodrome Forecast
Issued by NWS

Home | Current Version | Previous Version | Text Only | Print | Product List | Glossary On
Versions: 1 2 3 4 5 6 7 8 9 10 11 12 13 14 15 16
000
FTUS41 KBTV 261511 AAA
TAFSLK
TAF AMD
KSLK 261511Z 2615/2712 VRB03KT P6SM OVC005
     FM261700 10006KT P6SM SCT005 OVC018
     FM261900 VRB03KT P6SM SCT018 BKN035
     FM270000 VRB03KT P6SM BKN045
     FM270800 VRB03KT P6SM SCT200=

USA.gov is the U.S. government's official web portal to all federal, state and local government web resources and services.